createdAt,value
2023-05-22T00:04:30.247Z,2.00
2023-05-22T00:09:32.729Z,1.63
2023-05-22T00:14:34.874Z,1.80
2023-05-22T00:19:37.123Z,2.10
2023-05-22T00:24:39.341Z,1.95
2023-05-22T00:29:41.534Z,1.80
2023-05-22T00:34:43.902Z,1.60
2023-05-22T00:39:46.817Z,1.92
2023-05-22T00:44:49.954Z,1.85
2023-05-22T00:49:52.970Z,2.10
2023-05-22T00:54:55.228Z,2.20
2023-05-22T00:59:57.584Z,1.92
2023-05-22T01:04:59.810Z,1.65
2023-05-22T01:10:02.011Z,1.80
2023-05-22T01:15:18.329Z,2.00
2023-05-22T01:20:38.172Z,1.83
2023-05-22T01:25:53.819Z,1.92
2023-05-22T01:31:19.251Z,2.20
2023-05-22T01:36:22.882Z,1.70
2023-05-22T01:41:25.932Z,1.80
2023-05-22T01:46:30.283Z,2.03
2023-05-22T01:51:43.406Z,1.65
2023-05-22T01:56:51.285Z,2.10
2023-05-22T02:01:55.837Z,1.88
2023-05-22T02:07:19.849Z,1.63
2023-05-22T02:12:24.005Z,1.80
2023-05-22T02:17:26.397Z,1.90
2023-05-22T02:22:28.649Z,1.90
2023-05-22T02:27:32.580Z,1.90
2023-05-22T02:32:36.162Z,2.20
2023-05-22T02:37:39.003Z,2.08
2023-05-22T02:42:41.916Z,1.95
2023-05-22T02:47:44.364Z,1.95
2023-05-22T02:52:47.741Z,1.73
2023-05-22T02:57:49.938Z,2.08
2023-05-22T03:02:52.251Z,2.40
2023-05-22T03:07:54.573Z,2.40
2023-05-22T03:12:56.818Z,2.10
2023-05-22T03:17:59.771Z,2.30
2023-05-22T03:23:02.522Z,1.92
2023-05-22T03:28:04.952Z,2.40
2023-05-22T03:33:11.803Z,2.30
2023-05-22T03:38:15.094Z,2.38
2023-05-22T03:43:17.790Z,2.33
2023-05-22T03:48:21.237Z,2.47
2023-05-22T03:53:23.554Z,2.10
2023-05-22T03:58:26.007Z,2.25
2023-05-22T04:03:28.722Z,2.00
2023-05-22T04:08:31.010Z,1.92
2023-05-22T04:13:35.522Z,2.10
2023-05-22T04:18:37.680Z,1.95
2023-05-22T04:23:43.370Z,2.22
2023-05-22T04:28:46.316Z,2.15
2023-05-22T04:33:49.930Z,2.20
2023-05-22T04:38:52.940Z,2.10
2023-05-22T04:43:55.209Z,2.13
2023-05-22T04:49:02.126Z,2.25
2023-05-22T04:54:04.842Z,2.38
2023-05-22T04:59:26.677Z,2.08
2023-05-22T05:04:28.945Z,2.10
2023-05-22T05:09:31.469Z,2.30
2023-05-22T05:14:33.627Z,1.92
2023-05-22T05:19:37.173Z,1.88
2023-05-22T05:24:40.024Z,2.20
2023-05-22T05:29:42.773Z,2.30
2023-05-22T05:34:53.616Z,2.13
2023-05-22T05:40:00.422Z,2.42
2023-05-22T05:45:02.820Z,2.38
2023-05-22T05:50:07.572Z,2.40
2023-05-22T05:55:11.198Z,2.20
2023-05-22T06:00:14.062Z,2.35
2023-05-22T06:05:19.202Z,2.10
2023-05-22T06:10:24.898Z,1.88
2023-05-22T06:15:38.157Z,2.00
2023-05-22T06:20:40.781Z,2.40
2023-05-22T06:25:43.594Z,2.33
2023-05-22T06:30:46.162Z,2.30
2023-05-22T06:35:53.222Z,2.95
2023-05-22T06:40:56.061Z,2.25
2023-05-22T06:46:01.519Z,2.50
2023-05-22T06:51:16.612Z,3.40
2023-05-22T06:56:24.840Z,3.38
2023-05-22T07:01:34.134Z,3.85
2023-05-22T07:06:43.705Z,3.47
2023-05-22T07:11:46.940Z,3.55
2023-05-22T07:16:51.472Z,3.77
2023-05-22T07:22:00.890Z,3.88
2023-05-22T07:27:04.518Z,3.50
2023-05-22T07:32:08.656Z,3.80
2023-05-22T07:37:14.260Z,3.35
2023-05-22T07:42:18.471Z,3.67
2023-05-22T07:47:27.932Z,3.47
2023-05-22T07:52:31.664Z,4.22
2023-05-22T07:57:36.255Z,3.60
2023-05-22T08:02:46.899Z,3.20
2023-05-22T08:07:49.206Z,3.40
2023-05-22T08:12:51.416Z,3.30
2023-05-22T08:17:53.631Z,2.95
2023-05-22T08:22:55.886Z,2.65
2023-05-22T08:27:58.078Z,3.22
2023-05-22T08:33:00.299Z,3.63
2023-05-22T08:38:02.448Z,3.50
2023-05-22T08:43:06.005Z,3.95
2023-05-22T08:48:10.111Z,3.15
2023-05-22T08:53:14.490Z,2.63
2023-05-22T08:58:18.217Z,3.15
2023-05-22T09:03:21.765Z,3.78
2023-05-22T09:08:24.224Z,3.33
2023-05-22T09:13:27.509Z,3.20
2023-05-22T09:18:30.306Z,3.10
2023-05-22T09:23:32.582Z,3.90
2023-05-22T09:28:36.108Z,3.33
2023-05-22T09:33:38.393Z,4.07
2023-05-22T09:38:40.652Z,3.15
2023-05-22T09:43:51.040Z,3.40
2023-05-22T09:48:53.736Z,3.55
2023-05-22T09:54:06.853Z,3.85
2023-05-22T09:59:10.180Z,2.78
2023-05-22T10:04:16.757Z,3.10
2023-05-22T10:09:23.574Z,2.50
2023-05-22T10:14:26.312Z,3.17
2023-05-22T10:19:32.816Z,2.50
2023-05-22T10:24:35.622Z,2.83
2023-05-22T10:29:45.013Z,3.03
2023-05-22T10:34:59.578Z,3.35
2023-05-22T10:40:21.730Z,2.90
2023-05-22T10:45:27.148Z,2.42
2023-05-22T10:50:29.471Z,2.22
2023-05-22T10:55:31.905Z,2.42
2023-05-22T11:00:38.215Z,2.63
2023-05-22T11:05:41.119Z,3.03
2023-05-22T11:10:57.229Z,2.78
2023-05-22T11:16:04.391Z,2.80
2023-05-22T11:21:10.549Z,2.55
2023-05-22T11:26:26.338Z,2.38
2023-05-22T11:31:30.604Z,2.17
2023-05-22T11:36:33.753Z,2.45
2023-05-22T11:41:36.710Z,2.15
2023-05-22T11:46:39.971Z,2.55
2023-05-22T11:51:42.289Z,2.50
2023-05-22T11:56:45.449Z,2.80
2023-05-22T12:01:50.078Z,2.40
2023-05-22T12:06:53.451Z,2.22
2023-05-22T12:11:59.226Z,1.90
2023-05-22T12:17:04.571Z,2.13
2023-05-22T12:22:07.003Z,2.45
2023-05-22T12:27:10.475Z,2.80
2023-05-22T12:32:13.548Z,3.10
2023-05-22T12:37:25.228Z,3.22
2023-05-22T12:42:28.479Z,3.60
2023-05-22T12:47:30.808Z,3.42
2023-05-22T12:52:33.160Z,3.03
2023-05-22T12:57:35.380Z,3.55
2023-05-22T13:02:37.672Z,3.80
2023-05-22T13:07:39.829Z,4.70
2023-05-22T13:12:43.179Z,5.05
2023-05-22T13:17:45.933Z,4.10
2023-05-22T13:22:48.297Z,3.78
2023-05-22T13:27:50.705Z,3.55
2023-05-22T13:32:53.033Z,3.97
2023-05-22T13:37:55.338Z,4.60
2023-05-22T13:42:57.883Z,4.05
2023-05-22T13:48:00.194Z,4.28
2023-05-22T13:53:02.469Z,4.15
2023-05-22T13:58:05.010Z,4.35
2023-05-22T14:03:07.285Z,3.70
2023-05-22T14:08:09.855Z,4.10
2023-05-22T14:13:12.020Z,4.00
2023-05-22T14:18:16.625Z,4.32
2023-05-22T14:23:19.120Z,3.50
2023-05-22T14:28:21.248Z,3.83
2023-05-22T14:33:23.463Z,3.70
2023-05-22T14:38:26.554Z,4.00
2023-05-22T14:43:28.788Z,4.00
2023-05-22T14:48:31.112Z,3.97
2023-05-22T14:53:33.386Z,3.08
2023-05-22T14:58:35.755Z,4.20
2023-05-22T15:03:38.243Z,4.03
2023-05-22T15:08:40.527Z,4.00
2023-05-22T15:13:42.725Z,4.15
2023-05-22T15:18:45.002Z,4.03
2023-05-22T15:23:48.097Z,4.10
2023-05-22T15:28:50.317Z,4.22
2023-05-22T15:33:52.515Z,4.55
2023-05-22T15:38:54.831Z,3.70
2023-05-22T15:43:57.138Z,3.25
2023-05-22T15:48:59.313Z,3.63
2023-05-22T15:54:01.552Z,3.50
2023-05-22T15:59:03.827Z,3.78
2023-05-22T16:04:06.341Z,3.83
2023-05-22T16:09:09.462Z,3.63
2023-05-22T16:14:12.050Z,3.10
2023-05-22T16:19:14.624Z,3.50
2023-05-22T16:24:16.868Z,3.35
2023-05-22T16:29:22.123Z,3.60
2023-05-22T16:34:24.378Z,3.88
2023-05-22T16:39:29.714Z,3.15
2023-05-22T16:44:32.058Z,3.00
2023-05-22T16:49:34.252Z,2.92
2023-05-22T16:54:39.759Z,2.90
2023-05-22T16:59:42.544Z,2.80
2023-05-22T17:04:44.784Z,3.15
2023-05-22T17:09:47.023Z,2.80
2023-05-22T17:14:49.230Z,2.95
2023-05-22T17:19:52.735Z,2.85
2023-05-22T17:24:56.087Z,3.20
2023-05-22T17:29:58.519Z,2.75
2023-05-22T17:35:01.906Z,2.60
2023-05-22T17:40:04.845Z,2.50
2023-05-22T17:45:07.803Z,2.20
2023-05-22T17:50:10.639Z,2.67
2023-05-22T17:55:13.024Z,2.85
2023-05-22T18:00:17.121Z,2.40
2023-05-22T18:05:19.756Z,2.53
2023-05-22T18:10:24.473Z,2.25
2023-05-22T18:15:26.616Z,2.50
2023-05-22T18:20:28.748Z,2.75
2023-05-22T18:25:31.017Z,2.65
2023-05-22T18:30:33.274Z,2.90
2023-05-22T18:35:35.564Z,2.60
2023-05-22T18:40:37.862Z,2.83
2023-05-22T18:45:40.175Z,2.60
2023-05-22T18:50:42.477Z,3.30
2023-05-22T18:55:45.672Z,3.03
2023-05-22T19:00:48.525Z,3.17
2023-05-22T19:05:50.811Z,2.67
2023-05-22T19:10:55.407Z,2.60
2023-05-22T19:15:57.651Z,2.35
2023-05-22T19:21:00.006Z,2.60
2023-05-22T19:26:02.631Z,2.40
2023-05-22T19:31:04.929Z,2.95
2023-05-22T19:36:07.217Z,2.67
2023-05-22T19:41:09.496Z,2.53
2023-05-22T19:46:11.800Z,2.50
2023-05-22T19:51:13.997Z,2.58
2023-05-22T19:56:16.244Z,2.63
2023-05-22T20:01:18.726Z,3.40
2023-05-22T20:06:20.987Z,2.40
2023-05-22T20:11:23.213Z,2.55
2023-05-22T20:16:28.561Z,3.45
2023-05-22T20:21:32.230Z,2.97
2023-05-22T20:26:34.434Z,2.80
2023-05-22T20:31:37.174Z,2.58
2023-05-22T20:36:39.900Z,3.10
2023-05-22T20:41:42.116Z,3.30
2023-05-22T20:46:44.383Z,3.10
2023-05-22T20:51:50.998Z,2.60
2023-05-22T20:56:54.795Z,3.25
2023-05-22T21:01:57.906Z,3.83
2023-05-22T21:07:00.171Z,2.78
2023-05-22T21:12:02.682Z,3.50
2023-05-22T21:17:04.981Z,3.40
2023-05-22T21:22:07.348Z,3.45
2023-05-22T21:27:09.480Z,3.30
2023-05-22T21:32:11.777Z,3.53
2023-05-22T21:37:14.117Z,3.78
2023-05-22T21:42:16.587Z,4.70
2023-05-22T21:47:18.713Z,4.07
2023-05-22T21:52:20.924Z,7.93
2023-05-22T21:57:23.719Z,8.50
2023-05-22T22:02:26.143Z,7.15
2023-05-22T22:07:28.408Z,4.75
2023-05-22T22:12:30.714Z,3.50
2023-05-22T22:17:34.869Z,3.22
2023-05-22T22:22:37.109Z,3.30
2023-05-22T22:27:39.273Z,3.20
2023-05-22T22:32:41.537Z,2.47
2023-05-22T22:37:43.993Z,2.58
2023-05-22T22:42:46.129Z,2.92
2023-05-22T22:47:48.504Z,2.97
2023-05-22T22:52:51.227Z,2.85
2023-05-22T22:57:53.512Z,3.13
2023-05-22T23:02:55.729Z,2.80
2023-05-22T23:08:02.035Z,2.65
2023-05-22T23:13:04.457Z,3.10
2023-05-22T23:18:06.775Z,3.00
2023-05-22T23:23:08.936Z,3.05
2023-05-22T23:28:11.114Z,3.00
2023-05-22T23:33:13.297Z,2.70
2023-05-22T23:38:15.503Z,2.70
2023-05-22T23:43:20.579Z,3.13
2023-05-22T23:48:22.959Z,3.10
2023-05-22T23:53:25.181Z,2.80
2023-05-22T23:58:29.580Z,2.60
